sensor_id;sensor_type;location;lat;lon;timestamp;P1;durP1;ratioP1;P2;durP2;ratioP2
22571;SDS011;11452;53.368;14.658;2022-09-09T00:01:23;5.27;;;4.77;;
22571;SDS011;11452;53.368;14.658;2022-09-09T00:06:50;4.13;;;3.73;;
22571;SDS011;11452;53.368;14.658;2022-09-09T00:12:10;4.93;;;4.53;;
22571;SDS011;11452;53.368;14.658;2022-09-09T00:17:31;4.20;;;3.80;;
22571;SDS011;11452;53.368;14.658;2022-09-09T00:22:29;4.83;;;4.43;;
22571;SDS011;11452;53.368;14.658;2022-09-09T00:32:53;4.33;;;3.97;;
22571;SDS011;11452;53.368;14.658;2022-09-09T00:38:00;4.47;;;4.07;;
22571;SDS011;11452;53.368;14.658;2022-09-09T00:54:02;4.60;;;4.20;;
22571;SDS011;11452;53.368;14.658;2022-09-09T01:04:54;5.00;;;4.60;;
22571;SDS011;11452;53.368;14.658;2022-09-09T01:10:03;5.77;;;5.27;;
22571;SDS011;11452;53.368;14.658;2022-09-09T01:15:12;5.90;;;4.97;;
22571;SDS011;11452;53.368;14.658;2022-09-09T01:20:36;5.30;;;4.80;;
22571;SDS011;11452;53.368;14.658;2022-09-09T01:26:03;5.53;;;5.03;;
22571;SDS011;11452;53.368;14.658;2022-09-09T01:31:19;6.17;;;5.57;;
22571;SDS011;11452;53.368;14.658;2022-09-09T01:36:38;6.57;;;6.07;;
22571;SDS011;11452;53.368;14.658;2022-09-09T01:41:42;6.67;;;5.80;;
22571;SDS011;11452;53.368;14.658;2022-09-09T01:46:49;6.23;;;5.63;;
22571;SDS011;11452;53.368;14.658;2022-09-09T01:51:56;6.50;;;5.90;;
22571;SDS011;11452;53.368;14.658;2022-09-09T01:57:27;6.80;;;6.20;;
22571;SDS011;11452;53.368;14.658;2022-09-09T02:08:23;6.87;;;6.23;;
22571;SDS011;11452;53.368;14.658;2022-09-09T02:13:32;7.43;;;6.73;;
22571;SDS011;11452;53.368;14.658;2022-09-09T02:18:50;6.90;;;6.30;;
22571;SDS011;11452;53.368;14.658;2022-09-09T02:23:59;7.30;;;6.57;;
22571;SDS011;11452;53.368;14.658;2022-09-09T02:29:14;7.20;;;6.60;;
22571;SDS011;11452;53.368;14.658;2022-09-09T02:34:21;8.07;;;7.27;;
22571;SDS011;11452;53.368;14.658;2022-09-09T02:39:31;8.73;;;7.80;;
22571;SDS011;11452;53.368;14.658;2022-09-09T02:44:37;8.50;;;7.50;;
22571;SDS011;11452;53.368;14.658;2022-09-09T03:00:35;7.93;;;7.13;;
22571;SDS011;11452;53.368;14.658;2022-09-09T03:05:42;9.07;;;8.27;;
22571;SDS011;11452;53.368;14.658;2022-09-09T03:10:48;8.17;;;7.37;;
22571;SDS011;11452;53.368;14.658;2022-09-09T03:15:57;8.17;;;7.43;;
22571;SDS011;11452;53.368;14.658;2022-09-09T03:21:05;9.53;;;8.17;;
22571;SDS011;11452;53.368;14.658;2022-09-09T03:26:12;9.20;;;8.30;;
22571;SDS011;11452;53.368;14.658;2022-09-09T03:31:20;8.50;;;7.70;;
22571;SDS011;11452;53.368;14.658;2022-09-09T03:36:26;8.53;;;7.73;;
22571;SDS011;11452;53.368;14.658;2022-09-09T03:41:32;8.93;;;7.43;;
22571;SDS011;11452;53.368;14.658;2022-09-09T03:46:38;8.63;;;7.73;;
22571;SDS011;11452;53.368;14.658;2022-09-09T03:51:43;8.90;;;7.83;;
22571;SDS011;11452;53.368;14.658;2022-09-09T03:56:49;8.10;;;7.30;;
22571;SDS011;11452;53.368;14.658;2022-09-09T04:01:56;9.57;;;8.10;;
22571;SDS011;11452;53.368;14.658;2022-09-09T04:07:02;9.73;;;8.73;;
22571;SDS011;11452;53.368;14.658;2022-09-09T04:12:12;9.67;;;8.67;;
22571;SDS011;11452;53.368;14.658;2022-09-09T04:17:18;9.17;;;8.27;;
22571;SDS011;11452;53.368;14.658;2022-09-09T04:22:24;10.07;;;9.07;;
22571;SDS011;11452;53.368;14.658;2022-09-09T04:27:29;12.30;;;10.13;;
22571;SDS011;11452;53.368;14.658;2022-09-09T04:32:36;12.43;;;8.97;;
22571;SDS011;11452;53.368;14.658;2022-09-09T04:37:41;11.33;;;8.67;;
22571;SDS011;11452;53.368;14.658;2022-09-09T04:42:48;12.40;;;9.43;;
22571;SDS011;11452;53.368;14.658;2022-09-09T04:47:54;10.70;;;9.60;;
22571;SDS011;11452;53.368;14.658;2022-09-09T04:53:00;11.83;;;10.63;;
22571;SDS011;11452;53.368;14.658;2022-09-09T04:58:10;12.70;;;10.07;;
22571;SDS011;11452;53.368;14.658;2022-09-09T05:03:15;16.32;;;14.05;;
22571;SDS011;11452;53.368;14.658;2022-09-09T05:08:21;11.80;;;10.53;;
22571;SDS011;11452;53.368;14.658;2022-09-09T05:13:29;13.13;;;11.07;;
22571;SDS011;11452;53.368;14.658;2022-09-09T05:18:35;14.50;;;11.33;;
22571;SDS011;11452;53.368;14.658;2022-09-09T05:23:44;14.90;;;12.63;;
22571;SDS011;11452;53.368;14.658;2022-09-09T05:28:50;14.57;;;11.90;;
22571;SDS011;11452;53.368;14.658;2022-09-09T05:33:57;15.13;;;12.37;;
22571;SDS011;11452;53.368;14.658;2022-09-09T05:39:03;13.30;;;11.47;;
22571;SDS011;11452;53.368;14.658;2022-09-09T05:44:10;14.77;;;12.03;;
22571;SDS011;11452;53.368;14.658;2022-09-09T05:49:15;14.10;;;11.73;;
22571;SDS011;11452;53.368;14.658;2022-09-09T05:54:22;16.00;;;10.97;;
22571;SDS011;11452;53.368;14.658;2022-09-09T05:59:29;13.40;;;11.27;;
22571;SDS011;11452;53.368;14.658;2022-09-09T06:04:36;14.07;;;9.97;;
22571;SDS011;11452;53.368;14.658;2022-09-09T06:09:43;13.90;;;11.33;;
22571;SDS011;11452;53.368;14.658;2022-09-09T06:14:49;15.77;;;12.03;;
22571;SDS011;11452;53.368;14.658;2022-09-09T06:19:55;15.30;;;11.07;;
22571;SDS011;11452;53.368;14.658;2022-09-09T06:25:02;13.53;;;10.17;;
22571;SDS011;11452;53.368;14.658;2022-09-09T06:30:08;14.87;;;10.20;;
22571;SDS011;11452;53.368;14.658;2022-09-09T06:35:14;14.30;;;10.90;;
22571;SDS011;11452;53.368;14.658;2022-09-09T06:40:20;14.80;;;10.97;;
22571;SDS011;11452;53.368;14.658;2022-09-09T06:45:26;13.67;;;10.40;;
22571;SDS011;11452;53.368;14.658;2022-09-09T06:50:33;14.10;;;9.90;;
22571;SDS011;11452;53.368;14.658;2022-09-09T06:55:39;15.87;;;10.40;;
22571;SDS011;11452;53.368;14.658;2022-09-09T07:00:47;14.87;;;10.63;;
22571;SDS011;11452;53.368;14.658;2022-09-09T07:05:54;16.23;;;10.80;;
22571;SDS011;11452;53.368;14.658;2022-09-09T07:11:02;17.20;;;11.53;;
22571;SDS011;11452;53.368;14.658;2022-09-09T07:16:12;13.70;;;9.70;;
22571;SDS011;11452;53.368;14.658;2022-09-09T07:21:19;13.70;;;9.77;;
22571;SDS011;11452;53.368;14.658;2022-09-09T07:26:28;13.73;;;11.60;;
22571;SDS011;11452;53.368;14.658;2022-09-09T07:31:36;14.90;;;11.03;;
22571;SDS011;11452;53.368;14.658;2022-09-09T07:36:45;11.80;;;9.50;;
22571;SDS011;11452;53.368;14.658;2022-09-09T07:41:52;12.23;;;9.50;;
22571;SDS011;11452;53.368;14.658;2022-09-09T07:46:58;13.03;;;10.97;;
22571;SDS011;11452;53.368;14.658;2022-09-09T07:52:06;11.97;;;9.57;;
22571;SDS011;11452;53.368;14.658;2022-09-09T07:57:13;11.63;;;9.70;;
22571;SDS011;11452;53.368;14.658;2022-09-09T08:02:23;10.33;;;9.30;;
22571;SDS011;11452;53.368;14.658;2022-09-09T08:07:33;11.97;;;9.30;;
22571;SDS011;11452;53.368;14.658;2022-09-09T08:12:39;10.67;;;9.67;;
22571;SDS011;11452;53.368;14.658;2022-09-09T08:17:46;11.70;;;9.63;;
22571;SDS011;11452;53.368;14.658;2022-09-09T08:22:52;10.20;;;9.17;;
22571;SDS011;11452;53.368;14.658;2022-09-09T08:27:59;10.17;;;9.27;;
22571;SDS011;11452;53.368;14.658;2022-09-09T08:33:06;9.20;;;8.33;;
22571;SDS011;11452;53.368;14.658;2022-09-09T08:38:13;10.70;;;9.60;;
22571;SDS011;11452;53.368;14.658;2022-09-09T08:43:19;9.37;;;8.43;;
22571;SDS011;11452;53.368;14.658;2022-09-09T08:53:55;10.30;;;9.40;;
22571;SDS011;11452;53.368;14.658;2022-09-09T08:59:04;10.07;;;9.07;;
22571;SDS011;11452;53.368;14.658;2022-09-09T09:04:32;9.37;;;8.57;;
22571;SDS011;11452;53.368;14.658;2022-09-09T09:15:16;7.67;;;6.97;;
22571;SDS011;11452;53.368;14.658;2022-09-09T09:20:36;7.37;;;6.63;;
22571;SDS011;11452;53.368;14.658;2022-09-09T09:25:42;7.37;;;6.73;;
22571;SDS011;11452;53.368;14.658;2022-09-09T09:30:56;6.67;;;6.07;;
22571;SDS011;11452;53.368;14.658;2022-09-09T09:36:12;6.03;;;5.30;;
22571;SDS011;11452;53.368;14.658;2022-09-09T09:41:15;6.63;;;5.87;;
22571;SDS011;11452;53.368;14.658;2022-09-09T09:46:23;5.67;;;5.20;;
22571;SDS011;11452;53.368;14.658;2022-09-09T09:51:32;6.53;;;6.03;;
22571;SDS011;11452;53.368;14.658;2022-09-09T09:56:40;5.10;;;4.70;;
22571;SDS011;11452;53.368;14.658;2022-09-09T10:01:47;5.20;;;4.63;;
22571;SDS011;11452;53.368;14.658;2022-09-09T10:06:54;4.77;;;4.37;;
22571;SDS011;11452;53.368;14.658;2022-09-09T10:12:16;5.00;;;4.60;;
22571;SDS011;11452;53.368;14.658;2022-09-09T10:22:50;6.23;;;5.73;;
22571;SDS011;11452;53.368;14.658;2022-09-09T10:38:59;5.43;;;4.93;;
22571;SDS011;11452;53.368;14.658;2022-09-09T10:55:16;5.43;;;5.00;;
22571;SDS011;11452;53.368;14.658;2022-09-09T11:00:24;4.57;;;4.03;;
22571;SDS011;11452;53.368;14.658;2022-09-09T11:05:42;3.77;;;3.50;;
22571;SDS011;11452;53.368;14.658;2022-09-09T11:16:30;4.00;;;3.70;;
22571;SDS011;11452;53.368;14.658;2022-09-09T11:21:47;4.57;;;4.17;;
22571;SDS011;11452;53.368;14.658;2022-09-09T11:26:56;4.33;;;3.93;;
22571;SDS011;11452;53.368;14.658;2022-09-09T11:37:33;3.20;;;3.00;;
22571;SDS011;11452;53.368;14.658;2022-09-09T11:42:40;3.20;;;2.90;;
22571;SDS011;11452;53.368;14.658;2022-09-09T11:47:53;3.67;;;2.80;;
22571;SDS011;11452;53.368;14.658;2022-09-09T11:58:26;2.50;;;2.30;;
22571;SDS011;11452;53.368;14.658;2022-09-09T12:08:57;2.53;;;2.33;;
22571;SDS011;11452;53.368;14.658;2022-09-09T12:13:59;2.67;;;2.47;;
22571;SDS011;11452;53.368;14.658;2022-09-09T12:24:27;2.47;;;2.13;;
22571;SDS011;11452;53.368;14.658;2022-09-09T12:29:44;2.23;;;2.03;;
22571;SDS011;11452;53.368;14.658;2022-09-09T12:34:55;2.10;;;1.90;;
22571;SDS011;11452;53.368;14.658;2022-09-09T12:45:33;3.07;;;1.90;;
22571;SDS011;11452;53.368;14.658;2022-09-09T12:50:46;2.17;;;1.67;;
22571;SDS011;11452;53.368;14.658;2022-09-09T12:55:59;1.77;;;1.60;;
22571;SDS011;11452;53.368;14.658;2022-09-09T13:01:03;2.27;;;2.07;;
22571;SDS011;11452;53.368;14.658;2022-09-09T13:06:11;3.20;;;1.77;;
22571;SDS011;11452;53.368;14.658;2022-09-09T13:11:39;2.10;;;1.73;;
22571;SDS011;11452;53.368;14.658;2022-09-09T13:16:34;2.57;;;1.90;;
22571;SDS011;11452;53.368;14.658;2022-09-09T13:21:42;2.40;;;1.80;;
22571;SDS011;11452;53.368;14.658;2022-09-09T13:26:54;3.13;;;1.60;;
22571;SDS011;11452;53.368;14.658;2022-09-09T13:32:05;4.27;;;2.07;;
22571;SDS011;11452;53.368;14.658;2022-09-09T13:37:21;3.33;;;1.80;;
22571;SDS011;11452;53.368;14.658;2022-09-09T13:42:34;1.60;;;1.50;;
22571;SDS011;11452;53.368;14.658;2022-09-09T13:47:42;2.57;;;1.50;;
22571;SDS011;11452;53.368;14.658;2022-09-09T13:52:49;1.30;;;1.20;;
22571;SDS011;11452;53.368;14.658;2022-09-09T13:57:58;1.70;;;1.43;;
22571;SDS011;11452;53.368;14.658;2022-09-09T14:03:05;1.50;;;1.40;;
22571;SDS011;11452;53.368;14.658;2022-09-09T14:08:16;2.67;;;1.67;;
22571;SDS011;11452;53.368;14.658;2022-09-09T14:13:23;1.63;;;1.20;;
22571;SDS011;11452;53.368;14.658;2022-09-09T14:18:29;1.97;;;1.70;;
22571;SDS011;11452;53.368;14.658;2022-09-09T14:23:34;1.40;;;1.30;;
22571;SDS011;11452;53.368;14.658;2022-09-09T14:28:41;2.87;;;1.67;;
22571;SDS011;11452;53.368;14.658;2022-09-09T14:33:49;2.03;;;1.40;;
22571;SDS011;11452;53.368;14.658;2022-09-09T14:38:55;1.80;;;1.43;;
22571;SDS011;11452;53.368;14.658;2022-09-09T14:44:02;3.17;;;1.40;;
22571;SDS011;11452;53.368;14.658;2022-09-09T14:49:07;4.17;;;1.50;;
22571;SDS011;11452;53.368;14.658;2022-09-09T14:54:15;1.83;;;1.23;;
22571;SDS011;11452;53.368;14.658;2022-09-09T14:59:20;1.50;;;1.20;;
22571;SDS011;11452;53.368;14.658;2022-09-09T15:04:25;2.20;;;1.40;;
22571;SDS011;11452;53.368;14.658;2022-09-09T15:09:31;1.40;;;1.30;;
22571;SDS011;11452;53.368;14.658;2022-09-09T15:14:36;3.30;;;1.50;;
22571;SDS011;11452;53.368;14.658;2022-09-09T15:19:42;2.37;;;1.13;;
22571;SDS011;11452;53.368;14.658;2022-09-09T15:24:47;2.10;;;1.60;;
22571;SDS011;11452;53.368;14.658;2022-09-09T15:29:52;3.53;;;1.77;;
22571;SDS011;11452;53.368;14.658;2022-09-09T15:34:58;1.83;;;1.30;;
22571;SDS011;11452;53.368;14.658;2022-09-09T15:40:05;2.77;;;1.70;;
22571;SDS011;11452;53.368;14.658;2022-09-09T15:45:11;1.50;;;1.37;;
22571;SDS011;11452;53.368;14.658;2022-09-09T15:50:18;2.27;;;1.53;;
22571;SDS011;11452;53.368;14.658;2022-09-09T15:55:24;1.63;;;1.27;;
22571;SDS011;11452;53.368;14.658;2022-09-09T16:00:30;2.57;;;1.47;;
22571;SDS011;11452;53.368;14.658;2022-09-09T16:05:37;1.63;;;1.20;;
22571;SDS011;11452;53.368;14.658;2022-09-09T16:10:42;3.07;;;1.30;;
22571;SDS011;11452;53.368;14.658;2022-09-09T16:15:53;4.40;;;1.30;;
22571;SDS011;11452;53.368;14.658;2022-09-09T16:20:59;2.97;;;1.50;;
22571;SDS011;11452;53.368;14.658;2022-09-09T16:26:04;3.27;;;1.97;;
22571;SDS011;11452;53.368;14.658;2022-09-09T16:31:10;3.53;;;1.90;;
22571;SDS011;11452;53.368;14.658;2022-09-09T16:36:22;4.13;;;1.77;;
22571;SDS011;11452;53.368;14.658;2022-09-09T16:41:30;3.10;;;1.60;;
22571;SDS011;11452;53.368;14.658;2022-09-09T16:46:37;2.77;;;1.93;;
22571;SDS011;11452;53.368;14.658;2022-09-09T16:51:46;2.53;;;1.40;;
22571;SDS011;11452;53.368;14.658;2022-09-09T16:56:55;4.30;;;1.40;;
22571;SDS011;11452;53.368;14.658;2022-09-09T17:02:01;2.17;;;1.53;;
22571;SDS011;11452;53.368;14.658;2022-09-09T17:07:08;3.27;;;1.50;;
22571;SDS011;11452;53.368;14.658;2022-09-09T17:12:14;1.43;;;1.30;;
22571;SDS011;11452;53.368;14.658;2022-09-09T17:17:19;1.70;;;1.40;;
22571;SDS011;11452;53.368;14.658;2022-09-09T17:22:27;1.93;;;1.73;;
22571;SDS011;11452;53.368;14.658;2022-09-09T17:27:32;6.17;;;2.73;;
22571;SDS011;11452;53.368;14.658;2022-09-09T17:32:38;4.67;;;2.13;;
22571;SDS011;11452;53.368;14.658;2022-09-09T17:37:43;3.00;;;2.23;;
22571;SDS011;11452;53.368;14.658;2022-09-09T17:42:49;1.93;;;1.63;;
22571;SDS011;11452;53.368;14.658;2022-09-09T17:47:55;3.33;;;2.83;;
22571;SDS011;11452;53.368;14.658;2022-09-09T17:53:00;3.53;;;1.63;;
22571;SDS011;11452;53.368;14.658;2022-09-09T17:58:06;5.23;;;2.00;;
22571;SDS011;11452;53.368;14.658;2022-09-09T18:03:12;5.47;;;2.10;;
22571;SDS011;11452;53.368;14.658;2022-09-09T18:08:18;2.93;;;1.70;;
22571;SDS011;11452;53.368;14.658;2022-09-09T18:13:23;2.23;;;1.60;;
22571;SDS011;11452;53.368;14.658;2022-09-09T18:18:29;2.53;;;1.53;;
22571;SDS011;11452;53.368;14.658;2022-09-09T18:23:40;5.47;;;1.87;;
22571;SDS011;11452;53.368;14.658;2022-09-09T18:28:46;4.33;;;2.50;;
22571;SDS011;11452;53.368;14.658;2022-09-09T18:33:54;2.43;;;1.93;;
22571;SDS011;11452;53.368;14.658;2022-09-09T18:39:02;4.60;;;1.60;;
22571;SDS011;11452;53.368;14.658;2022-09-09T18:44:11;3.27;;;1.93;;
22571;SDS011;11452;53.368;14.658;2022-09-09T18:49:20;3.53;;;1.50;;
22571;SDS011;11452;53.368;14.658;2022-09-09T18:54:28;2.90;;;1.57;;
22571;SDS011;11452;53.368;14.658;2022-09-09T18:59:36;3.40;;;2.27;;
22571;SDS011;11452;53.368;14.658;2022-09-09T19:04:42;1.83;;;1.63;;
22571;SDS011;11452;53.368;14.658;2022-09-09T19:09:48;4.73;;;1.90;;
22571;SDS011;11452;53.368;14.658;2022-09-09T19:14:53;2.47;;;1.80;;
22571;SDS011;11452;53.368;14.658;2022-09-09T19:20:00;3.97;;;2.00;;
22571;SDS011;11452;53.368;14.658;2022-09-09T19:25:07;3.13;;;2.03;;
22571;SDS011;11452;53.368;14.658;2022-09-09T19:30:15;3.40;;;1.80;;
22571;SDS011;11452;53.368;14.658;2022-09-09T19:35:21;2.93;;;2.13;;
22571;SDS011;11452;53.368;14.658;2022-09-09T19:40:26;3.60;;;1.97;;
22571;SDS011;11452;53.368;14.658;2022-09-09T19:45:33;3.47;;;1.77;;
22571;SDS011;11452;53.368;14.658;2022-09-09T19:50:38;4.83;;;1.97;;
22571;SDS011;11452;53.368;14.658;2022-09-09T19:55:43;3.17;;;2.10;;
22571;SDS011;11452;53.368;14.658;2022-09-09T20:00:50;1.73;;;1.63;;
22571;SDS011;11452;53.368;14.658;2022-09-09T20:05:56;2.90;;;2.27;;
22571;SDS011;11452;53.368;14.658;2022-09-09T20:11:02;2.20;;;2.00;;
22571;SDS011;11452;53.368;14.658;2022-09-09T20:16:10;3.17;;;1.90;;
22571;SDS011;11452;53.368;14.658;2022-09-09T20:21:21;1.73;;;1.63;;
22571;SDS011;11452;53.368;14.658;2022-09-09T20:26:28;3.43;;;2.43;;
22571;SDS011;11452;53.368;14.658;2022-09-09T20:31:37;2.37;;;2.17;;
22571;SDS011;11452;53.368;14.658;2022-09-09T20:36:45;5.90;;;2.47;;
22571;SDS011;11452;53.368;14.658;2022-09-09T20:41:53;3.00;;;2.30;;
22571;SDS011;11452;53.368;14.658;2022-09-09T20:46:59;4.57;;;2.53;;
22571;SDS011;11452;53.368;14.658;2022-09-09T20:52:06;3.53;;;2.67;;
22571;SDS011;11452;53.368;14.658;2022-09-09T20:57:14;4.20;;;2.60;;
22571;SDS011;11452;53.368;14.658;2022-09-09T21:02:22;2.53;;;2.33;;
22571;SDS011;11452;53.368;14.658;2022-09-09T21:07:27;4.73;;;2.43;;
22571;SDS011;11452;53.368;14.658;2022-09-09T21:12:33;2.90;;;2.17;;
22571;SDS011;11452;53.368;14.658;2022-09-09T21:17:38;2.67;;;2.17;;
22571;SDS011;11452;53.368;14.658;2022-09-09T21:22:44;2.73;;;1.77;;
22571;SDS011;11452;53.368;14.658;2022-09-09T21:27:49;3.20;;;1.93;;
22571;SDS011;11452;53.368;14.658;2022-09-09T21:32:55;2.70;;;1.90;;
22571;SDS011;11452;53.368;14.658;2022-09-09T21:38:00;2.73;;;2.23;;
22571;SDS011;11452;53.368;14.658;2022-09-09T21:43:06;2.77;;;2.10;;
22571;SDS011;11452;53.368;14.658;2022-09-09T21:48:15;3.03;;;2.10;;
22571;SDS011;11452;53.368;14.658;2022-09-09T21:53:21;4.77;;;2.10;;
22571;SDS011;11452;53.368;14.658;2022-09-09T21:58:27;3.83;;;2.33;;
22571;SDS011;11452;53.368;14.658;2022-09-09T22:03:34;5.10;;;2.53;;
22571;SDS011;11452;53.368;14.658;2022-09-09T22:08:42;6.47;;;3.63;;
22571;SDS011;11452;53.368;14.658;2022-09-09T22:13:48;4.97;;;3.10;;
22571;SDS011;11452;53.368;14.658;2022-09-09T22:18:56;4.33;;;3.37;;
22571;SDS011;11452;53.368;14.658;2022-09-09T22:24:03;3.73;;;3.10;;
22571;SDS011;11452;53.368;14.658;2022-09-09T22:29:11;5.80;;;3.40;;
22571;SDS011;11452;53.368;14.658;2022-09-09T22:34:17;3.53;;;3.17;;
22571;SDS011;11452;53.368;14.658;2022-09-09T22:39:23;5.00;;;3.20;;
22571;SDS011;11452;53.368;14.658;2022-09-09T22:44:29;3.97;;;2.47;;
22571;SDS011;11452;53.368;14.658;2022-09-09T22:49:35;3.60;;;2.20;;
22571;SDS011;11452;53.368;14.658;2022-09-09T22:54:41;3.07;;;2.33;;
22571;SDS011;11452;53.368;14.658;2022-09-09T22:59:48;2.20;;;2.00;;
22571;SDS011;11452;53.368;14.658;2022-09-09T23:04:53;3.57;;;2.43;;
22571;SDS011;11452;53.368;14.658;2022-09-09T23:10:00;5.10;;;1.77;;
22571;SDS011;11452;53.368;14.658;2022-09-09T23:15:08;1.93;;;1.57;;
22571;SDS011;11452;53.368;14.658;2022-09-09T23:20:14;2.53;;;1.50;;
22571;SDS011;11452;53.368;14.658;2022-09-09T23:25:21;3.20;;;2.03;;
22571;SDS011;11452;53.368;14.658;2022-09-09T23:30:27;4.20;;;2.63;;
22571;SDS011;11452;53.368;14.658;2022-09-09T23:35:33;3.70;;;3.33;;
22571;SDS011;11452;53.368;14.658;2022-09-09T23:40:39;5.20;;;3.30;;
22571;SDS011;11452;53.368;14.658;2022-09-09T23:45:46;5.10;;;3.03;;
22571;SDS011;11452;53.368;14.658;2022-09-09T23:50:53;3.53;;;3.03;;
22571;SDS011;11452;53.368;14.658;2022-09-09T23:55:58;3.70;;;3.40;;
